Time;durP1;ratioP1;P1;durP2;ratioP2;P2;SDS_P1;SDS_P2;PMS_P1;PMS_P2;Temp;Humidity;BMP_temperature;BMP_pressure;BME280_temperature;BME280_humidity;BME280_pressure;Samples;Min_cycle;Max_cycle;Signal;HPM_P1;HPM_P2
2023/03/06 00:00:49;;;;;;;23.17;14.23;;;;;;;;;;2555163;23;19916;-89
2023/03/06 00:01:50;;;;;;;23.92;16.35;;;;;;;;;;2559500;23;20380;-91
2023/03/06 00:02:51;;;;;;;23.70;14.88;;;;;;;;;;2572592;23;19996;-90
2023/03/06 00:03:51;;;;;;;;;;;;;;;;;;2573416;23;20019;-90
2023/03/06 00:04:52;;;;;;;24.40;15.23;;;;;;;;;;2555217;23;20329;-92
2023/03/06 00:05:55;;;;;;;24.27;14.48;;;;;;;;;;2559537;23;20088;-90
2023/03/06 00:06:56;;;;;;;24.55;16.05;;;;;;;;;;2555058;23;20083;-90
2023/03/06 00:07:56;;;;;;;;;;;;;;;;;;2542924;23;20065;-89
2023/03/06 00:08:57;;;;;;;25.33;15.13;;;;;;;;;;2542431;23;19904;-90
2023/03/06 00:09:57;;;;;;;;;;;;;;;;;;2559766;23;20370;-90
2023/03/06 00:10:58;;;;;;;25.77;15.57;;;;;;;;;;2554768;23;19928;-89
2023/03/06 00:11:58;;;;;;;;;;;;;;;;;;2543111;23;20008;-89
2023/03/06 00:13:01;;;;;;;24.73;15.33;;;;;;;;;;2543128;23;19991;-89
2023/03/06 00:14:02;;;;;;;25.17;15.88;;;;;;;;;;2542957;23;20009;-89
2023/03/06 00:15:03;;;;;;;;;;;;;;;;;;2543275;23;19997;-90
2023/03/06 00:16:05;;;;;;;29.20;15.80;;;;;;;;;;2542875;23;19912;-90
2023/03/06 00:17:06;;;;;;;24.67;13.82;;;;;;;;;;2542889;23;20001;-90
2023/03/06 00:18:06;;;;;;;;;;;;;;;;;;2543213;23;19997;-90
2023/03/06 00:19:07;;;;;;;29.48;17.23;;;;;;;;;;2558713;23;19912;-90
2023/03/06 00:20:10;;;;;;;23.13;15.07;;;;;;;;;;2554716;23;20001;-90
2023/03/06 00:21:11;;;;;;;26.55;16.38;;;;;;;;;;2542923;23;19997;-90
2023/03/06 00:22:14;;;;;;;;;;;;;;;;;;2544212;23;20066;-89
2023/03/06 00:23:14;;;;;;;25.05;14.98;;;;;;;;;;2554637;23;19950;-90
2023/03/06 00:24:15;;;;;;;29.02;15.43;;;;;;;;;;2118624;23;10235285;-91
2023/03/06 00:25:18;;;;;;;23.75;14.48;;;;;;;;;;2581132;22;20003;-90
2023/03/06 00:26:18;;;;;;;25.58;15.32;;;;;;;;;;2566854;23;20005;-90
2023/03/06 00:27:19;;;;;;;;;;;;;;;;;;2567729;23;20009;-89
2023/03/06 00:28:20;;;;;;;26.13;15.37;;;;;;;;;;2566309;23;20225;-92
2023/03/06 00:29:21;;;;;;;29.30;15.30;;;;;;;;;;2557302;23;19993;-91
2023/03/06 00:30:23;;;;;;;24.70;15.05;;;;;;;;;;2561649;23;20020;-91
2023/03/06 00:31:24;;;;;;;28.52;15.30;;;;;;;;;;2573488;23;20313;-90
2023/03/06 00:32:25;;;;;;;;;;;;;;;;;;2573192;23;20031;-91
2023/03/06 00:33:25;;;;;;;22.85;14.23;;;;;;;;;;2572473;23;19904;-91
2023/03/06 00:37:16;;;;;;;23.45;14.35;;;;;;;;;;2592004;22;20007;-96
2023/03/06 00:38:17;;;;;;;24.23;13.85;;;;;;;;;;2542213;23;20017;-90
2023/03/06 00:39:17;;;;;;;;;;;;;;;;;;2555675;23;20002;-90
2023/03/06 00:40:20;;;;;;;21.63;13.50;;;;;;;;;;2571538;23;19931;-90
2023/03/06 00:41:20;;;;;;;22.88;13.85;;;;;;;;;;2567108;23;20103;-90
2023/03/06 00:42:20;;;;;;;;;;;;;;;;;;2572310;23;20067;-90
2023/03/06 00:43:22;;;;;;;24.20;12.87;;;;;;;;;;2572456;23;20258;-90
2023/03/06 00:44:22;;;;;;;20.85;12.88;;;;;;;;;;2572304;23;20087;-90
2023/03/06 00:45:22;;;;;;;;;;;;;;;;;;2568124;23;19992;-91
2023/03/06 00:46:23;;;;;;;21.67;12.87;;;;;;;;;;2567898;23;19983;-90
2023/03/06 00:47:24;;;;;;;19.63;12.10;;;;;;;;;;2576520;22;19989;-90
2023/03/06 00:48:24;;;;;;;;;;;;;;;;;;2579384;22;20061;-91
2023/03/06 00:49:25;;;;;;;18.03;12.37;;;;;;;;;;2579641;22;19975;-91
2023/03/06 00:50:25;;;;;;;19.60;13.05;;;;;;;;;;2575018;22;20000;-90
2023/03/06 00:51:26;;;;;;;;;;;;;;;;;;2558392;23;20015;-91
2023/03/06 00:52:26;;;;;;;19.77;11.30;;;;;;;;;;2573201;23;19975;-90
2023/03/06 00:53:27;;;;;;;;;;;;;;;;;;2573285;23;20102;-90
2023/03/06 00:54:27;;;;;;;18.00;11.73;;;;;;;;;;2567405;23;20317;-90
2023/03/06 00:55:29;;;;;;;18.33;12.33;;;;;;;;;;2141599;23;10001347;-90
2023/03/06 00:56:30;;;;;;;21.40;12.45;;;;;;;;;;2569726;23;20318;-96
2023/03/06 00:57:30;;;;;;;;;;;;;;;;;;2562349;23;19997;-95
2023/03/06 00:58:30;;;;;;;18.90;11.80;;;;;;;;;;2559331;23;19950;-94
2023/03/06 00:59:31;;;;;;;19.55;12.38;;;;;;;;;;2561729;23;20008;-96
2023/03/06 01:00:34;;;;;;;;;;;;;;;;;;2574611;23;20169;-96
2023/03/06 01:02:27;;;;;;;16.98;11.05;;;;;;;;;;2574813;23;19931;-96
2023/03/06 01:03:27;;;;;;;20.27;12.13;;;;;;;;;;2572044;23;20035;-90
2023/03/06 01:04:28;;;;;;;;;;;;;;;;;;2573053;23;20342;-92
2023/03/06 01:05:29;;;;;;;17.15;11.48;;;;;;;;;;2567461;23;19935;-91
2023/03/06 01:06:30;;;;;;;15.85;11.38;;;;;;;;;;2555189;23;20048;-90
2023/03/06 01:07:32;;;;;;;;;;;;;;;;;;2555103;23;20005;-91
2023/03/06 01:08:33;;;;;;;16.15;10.80;;;;;;;;;;2555124;23;19981;-90
2023/03/06 01:09:33;;;;;;;;;;;;;;;;;;2571998;23;20050;-90
2023/03/06 01:10:37;;;;;;;18.77;12.40;;;;;;;;;;2567175;23;20391;-91
2023/03/06 01:11:38;;;;;;;16.13;11.07;;;;;;;;;;2555181;23;19997;-90
2023/03/06 01:12:38;;;;;;;15.73;11.35;;;;;;;;;;2134763;23;10098668;-91
2023/03/06 01:13:39;;;;;;;;;;;;;;;;;;2572569;23;20334;-91
2023/03/06 01:14:39;;;;;;;21.55;12.52;;;;;;;;;;2567049;23;19999;-90
2023/03/06 01:15:40;;;;;;;;;;;;;;;;;;2573601;23;20493;-89
2023/03/06 01:16:40;;;;;;;19.47;11.07;;;;;;;;;;2572507;23;19983;-89
2023/03/06 01:17:40;;;;;;;;;;;;;;;;;;2567683;23;20345;-90
2023/03/06 01:19:51;;;;;;;20.27;11.75;;;;;;;;;;2566695;23;20029;-89
2023/03/06 01:20:53;;;;;;;21.30;11.77;;;;;;;;;;2142596;23;10001076;-89
2023/03/06 01:21:53;;;;;;;19.42;11.57;;;;;;;;;;2571730;23;19996;-89
2023/03/06 01:22:55;;;;;;;;;;;;;;;;;;2567571;23;20001;-89
2023/03/06 01:23:55;;;;;;;19.35;12.02;;;;;;;;;;2566759;23;19915;-89
2023/03/06 01:24:56;;;;;;;;;;;;;;;;;;2571710;23;20400;-89
2023/03/06 01:25:56;;;;;;;19.13;11.83;;;;;;;;;;2566795;23;20337;-89
2023/03/06 01:26:56;;;;;;;20.80;11.98;;;;;;;;;;2571316;23;20091;-92
2023/03/06 01:27:57;;;;;;;;;;;;;;;;;;2573239;23;20372;-89
2023/03/06 01:28:57;;;;;;;18.50;11.83;;;;;;;;;;2575101;23;19953;-89
2023/03/06 01:29:58;;;;;;;17.00;11.70;;;;;;;;;;2573351;23;20004;-90
2023/03/06 01:30:59;;;;;;;;;;;;;;;;;;2583147;22;20003;-88
2023/03/06 01:31:59;;;;;;;18.98;12.13;;;;;;;;;;2572927;22;19994;-89
2023/03/06 01:33:00;;;;;;;19.17;11.75;;;;;;;;;;2567268;23;20373;-90
2023/03/06 01:34:00;;;;;;;;;;;;;;;;;;2555039;23;19998;-89
2023/03/06 01:35:02;;;;;;;16.67;11.30;;;;;;;;;;2571508;23;19954;-89
2023/03/06 01:36:05;;;;;;;17.30;11.10;;;;;;;;;;2567284;23;20000;-92
2023/03/06 01:37:05;;;;;;;19.58;11.60;;;;;;;;;;2566962;23;20377;-90
2023/03/06 01:38:06;;;;;;;;;;;;;;;;;;2568191;23;20020;-90
2023/03/06 01:39:06;;;;;;;19.42;11.20;;;;;;;;;;2571944;23;19907;-91
2023/03/06 01:40:08;;;;;;;;;;;;;;;;;;2568476;23;19996;-89
2023/03/06 01:41:09;;;;;;;19.88;12.85;;;;;;;;;;2572115;23;20013;-91
2023/03/06 01:42:10;;;;;;;21.20;12.00;;;;;;;;;;2573122;23;20023;-90
2023/03/06 01:43:10;;;;;;;;;;;;;;;;;;2568477;23;20008;-90
2023/03/06 01:44:12;;;;;;;17.83;11.07;;;;;;;;;;2571902;23;19904;-90
2023/03/06 01:45:12;;;;;;;18.75;10.52;;;;;;;;;;2567855;23;19996;-90
2023/03/06 01:46:28;;;;;;;;;;;;;;;;;;2568193;23;20000;-90
2023/03/06 01:47:28;;;;;;;15.85;11.05;;;;;;;;;;2583543;22;19903;-91
2023/03/06 01:48:28;;;;;;;;;;;;;;;;;;2580865;23;20327;-92
2023/03/06 01:49:35;;;;;;;18.07;11.27;;;;;;;;;;2572391;23;20002;-91
2023/03/06 01:50:35;;;;;;;15.35;10.30;;;;;;;;;;2567921;23;20072;-91
2023/03/06 01:51:41;;;;;;;;;;;;;;;;;;2572665;23;19992;-90
2023/03/06 01:52:49;;;;;;;17.45;10.75;;;;;;;;;;2567634;23;19904;-91
2023/03/06 01:53:51;;;;;;;16.08;10.70;;;;;;;;;;2572496;23;20071;-91
2023/03/06 01:54:59;;;;;;;15.32;10.07;;;;;;;;;;2568163;23;20409;-91
2023/03/06 01:55:59;;;;;;;15.75;10.30;;;;;;;;;;2557274;23;19993;-92
2023/03/06 01:57:04;;;;;;;;;;;;;;;;;;2568282;23;19993;-91
2023/03/06 01:58:11;;;;;;;17.48;10.68;;;;;;;;;;2556115;23;20037;-91
2023/03/06 01:59:12;;;;;;;18.23;11.07;;;;;;;;;;2572004;23;20460;-90
2023/03/06 02:00:17;;;;;;;15.95;10.82;;;;;;;;;;2573141;23;20342;-90
2023/03/06 02:01:18;;;;;;;16.67;10.27;;;;;;;;;;2567949;23;20326;-91
2023/03/06 02:02:19;;;;;;;;;;;;;;;;;;2568694;23;20003;-91
2023/03/06 02:03:23;;;;;;;18.45;11.27;;;;;;;;;;2567885;23;20075;-91
2023/03/06 02:04:23;;;;;;;20.75;10.85;;;;;;;;;;2556500;23;19989;-91
2023/03/06 02:05:24;;;;;;;;;;;;;;;;;;2556528;23;20004;-89
2023/03/06 02:06:24;;;;;;;17.10;9.97;;;;;;;;;;2555784;23;19908;-91
2023/03/06 02:07:25;;;;;;;;;;;;;;;;;;2556329;23;19997;-90
2023/03/06 02:08:26;;;;;;;17.30;11.10;;;;;;;;;;2555460;23;19912;-92
2023/03/06 02:09:29;;;;;;;15.77;11.20;;;;;;;;;;2572274;23;19992;-90
2023/03/06 02:10:30;;;;;;;16.63;11.20;;;;;;;;;;2128760;23;10252003;-91
2023/03/06 02:11:30;;;;;;;;;;;;;;;;;;2555994;23;20347;-91
2023/03/06 02:12:31;;;;;;;17.70;11.33;;;;;;;;;;2567857;23;19904;-90
2023/03/06 02:13:33;;;;;;;17.17;11.27;;;;;;;;;;2542992;23;20032;-90
2023/03/06 02:14:33;;;;;;;18.88;11.68;;;;;;;;;;2555695;23;20012;-91
2023/03/06 02:15:34;;;;;;;;;;;;;;;;;;2556012;23;20549;-90
2023/03/06 02:16:34;;;;;;;17.17;10.43;;;;;;;;;;2572270;23;20340;-90
2023/03/06 02:17:35;;;;;;;18.35;11.35;;;;;;;;;;2568124;23;20023;-90
2023/03/06 02:18:36;;;;;;;;;;;;;;;;;;2568463;23;20350;-90
2023/03/06 02:19:47;;;;;;;16.88;11.27;;;;;;;;;;2125290;23;10076997;-91
2023/03/06 02:20:52;;;;;;;18.95;11.55;;;;;;;;;;2557045;23;19997;-91
2023/03/06 02:21:52;;;;;;;16.35;10.68;;;;;;;;;;2571945;23;20338;-90
2023/03/06 02:23:03;;;;;;;;;;;;;;;;;;2573280;23;19996;-89
2023/03/06 02:24:22;;;;;;;15.65;10.25;;;;;;;;;;2576418;23;19947;-90
2023/03/06 02:25:32;;;;;;;15.20;10.57;;;;;;;;;;2568049;23;20005;-90
2023/03/06 02:26:36;;;;;;;17.83;10.95;;;;;;;;;;2572256;23;20051;-90
2023/03/06 02:27:36;;;;;;;15.57;10.63;;;;;;;;;;2572698;23;19997;-90
2023/03/06 02:28:38;;;;;;;;;;;;;;;;;;2568060;23;20027;-91
2023/03/06 02:29:39;;;;;;;15.90;9.90;;;;;;;;;;2580378;22;19903;-90
2023/03/06 02:30:42;;;;;;;16.65;10.20;;;;;;;;;;2579909;23;20007;-90
2023/03/06 02:31:42;;;;;;;15.93;9.90;;;;;;;;;;2571860;23;20442;-90
2023/03/06 02:32:42;;;;;;;;;;;;;;;;;;2568356;23;20008;-90
2023/03/06 02:33:43;;;;;;;15.57;9.43;;;;;;;;;;2555570;23;20050;-90
2023/03/06 02:34:55;;;;;;;14.40;9.30;;;;;;;;;;2567612;23;20460;-90
2023/03/06 02:36:02;;;;;;;15.18;9.52;;;;;;;;;;2569590;23;20125;-91
2023/03/06 02:37:11;;;;;;;15.23;9.63;;;;;;;;;;2571432;23;20429;-90
2023/03/06 02:38:18;;;;;;;16.83;9.25;;;;;;;;;;2572410;23;20311;-90
2023/03/06 02:39:24;;;;;;;15.68;8.88;;;;;;;;;;2567442;23;20001;-89
2023/03/06 02:40:25;;;;;;;16.02;10.48;;;;;;;;;;2556290;23;19996;-89
2023/03/06 02:41:25;;;;;;;;;;;;;;;;;;2567903;23;19996;-88
2023/03/06 02:42:27;;;;;;;14.40;9.40;;;;;;;;;;2567264;23;19995;-89
2023/03/06 02:43:32;;;;;;;13.65;8.95;;;;;;;;;;2554870;23;20076;-89
2023/03/06 02:44:34;;;;;;;14.77;9.38;;;;;;;;;;2571339;23;19995;-88
2023/03/06 02:45:37;;;;;;;16.88;10.23;;;;;;;;;;2572384;23;20373;-89
2023/03/06 02:46:38;;;;;;;14.15;9.13;;;;;;;;;;2567389;23;20504;-89
2023/03/06 02:47:38;;;;;;;;;;;;;;;;;;2572308;23;19992;-89
2023/03/06 02:48:39;;;;;;;15.63;9.10;;;;;;;;;;2572405;23;19962;-88
2023/03/06 02:49:39;;;;;;;14.95;9.60;;;;;;;;;;2567619;23;20024;-88
2023/03/06 02:50:40;;;;;;;;;;;;;;;;;;2555725;23;20080;-88
2023/03/06 02:51:40;;;;;;;13.98;8.73;;;;;;;;;;2571789;23;19935;-89
2023/03/06 02:52:41;;;;;;;;;;;;;;;;;;2573219;23;20000;-90
2023/03/06 02:53:41;;;;;;;16.23;9.67;;;;;;;;;;2572236;23;19915;-90
2023/03/06 02:54:41;;;;;;;14.50;9.85;;;;;;;;;;2567544;23;19988;-88
2023/03/06 02:55:42;;;;;;;14.98;9.10;;;;;;;;;;2554972;23;20087;-90
2023/03/06 02:56:43;;;;;;;;;;;;;;;;;;2572503;23;19996;-90
2023/03/06 02:57:43;;;;;;;13.90;8.33;;;;;;;;;;2567504;23;19915;-90
2023/03/06 02:58:44;;;;;;;;;;;;;;;;;;2567904;23;19996;-88
2023/03/06 02:59:44;;;;;;;17.23;9.90;;;;;;;;;;2567388;23;20337;-89
2023/03/06 03:00:45;;;;;;;;;;;;;;;;;;2555717;23;20001;-89
2023/03/06 03:01:46;;;;;;;15.75;9.10;;;;;;;;;;2555117;23;20230;-89
2023/03/06 03:02:46;;;;;;;;;;;;;;;;;;2558303;23;19989;-95
2023/03/06 03:03:47;;;;;;;15.83;10.57;;;;;;;;;;2567024;23;19919;-93
2023/03/06 03:04:47;;;;;;;;;;;;;;;;;;2570655;23;20517;-90
2023/03/06 03:05:47;;;;;;;16.58;9.88;;;;;;;;;;2568284;23;19904;-89
2023/03/06 03:06:48;;;;;;;13.82;10.02;;;;;;;;;;2554977;23;20086;-89
2023/03/06 03:07:48;;;;;;;15.50;9.52;;;;;;;;;;2554735;23;20076;-89
2023/03/06 03:08:51;;;;;;;;;;;;;;;;;;2570160;23;20069;-90
2023/03/06 03:09:52;;;;;;;16.20;10.10;;;;;;;;;;2572777;23;20309;-89
2023/03/06 03:10:52;;;;;;;;;;;;;;;;;;2568018;23;20000;-90
2023/03/06 03:11:52;;;;;;;17.23;10.13;;;;;;;;;;2567589;23;19904;-91
2023/03/06 03:12:53;;;;;;;15.18;9.45;;;;;;;;;;2571819;23;19996;-90
2023/03/06 03:13:53;;;;;;;15.35;9.65;;;;;;;;;;2567423;23;20000;-90
2023/03/06 03:14:54;;;;;;;;;;;;;;;;;;2555422;23;19997;-89
2023/03/06 03:16:10;;;;;;;14.93;9.63;;;;;;;;;;2571804;23;19914;-90
2023/03/06 03:17:10;;;;;;;15.75;9.63;;;;;;;;;;2142936;23;10000852;-90
2023/03/06 03:18:11;;;;;;;16.70;9.60;;;;;;;;;;2571442;23;19993;-89
2023/03/06 03:19:11;;;;;;;;;;;;;;;;;;2582010;23;19997;-89
2023/03/06 03:20:15;;;;;;;14.60;9.40;;;;;;;;;;2572736;22;19982;-89
2023/03/06 03:21:16;;;;;;;15.10;9.80;;;;;;;;;;2570815;23;20008;-90
2023/03/06 03:22:17;;;;;;;;;;;;;;;;;;2564348;23;20001;-90
2023/03/06 03:23:17;;;;;;;17.57;10.33;;;;;;;;;;2564885;23;19904;-90
2023/03/06 03:24:17;;;;;;;14.48;10.25;;;;;;;;;;2564128;23;20064;-90
2023/03/06 03:25:18;;;;;;;;;;;;;;;;;;2581012;23;20004;-90
2023/03/06 03:26:20;;;;;;;16.13;9.63;;;;;;;;;;2579449;23;19908;-90
2023/03/06 03:27:21;;;;;;;15.65;9.68;;;;;;;;;;2545564;23;20055;-90
2023/03/06 03:28:21;;;;;;;;;;;;;;;;;;2577453;23;20046;-90
2023/03/06 03:29:22;;;;;;;14.43;10.40;;;;;;;;;;2567902;23;19904;-88
2023/03/06 03:30:22;;;;;;;;;;;;;;;;;;2572364;23;19993;-90
2023/03/06 03:31:22;;;;;;;15.10;9.50;;;;;;;;;;2567651;23;19911;-89
2023/03/06 03:32:23;;;;;;;;;;;;;;;;;;2572380;23;20369;-88
2023/03/06 03:33:23;;;;;;;16.37;9.90;;;;;;;;;;2567881;23;20289;-89
2023/03/06 03:34:24;;;;;;;;;;;;;;;;;;2555665;23;20441;-89
2023/03/06 03:35:24;;;;;;;15.82;9.25;;;;;;;;;;2573008;23;20129;-92
2023/03/06 03:36:26;;;;;;;;;;;;;;;;;;2574324;23;20534;-91
2023/03/06 03:37:26;;;;;;;12.93;7.80;;;;;;;;;;2567810;23;19918;-91
2023/03/06 03:38:27;;;;;;;13.85;9.88;;;;;;;;;;2572175;23;19999;-90
2023/03/06 03:39:28;;;;;;;;;;;;;;;;;;2568148;23;20465;-90
2023/03/06 03:40:28;;;;;;;15.90;10.70;;;;;;;;;;2571762;23;19904;-91
2023/03/06 03:41:29;;;;;;;15.68;9.95;;;;;;;;;;2568501;23;20421;-90
2023/03/06 03:42:29;;;;;;;;;;;;;;;;;;2568247;23;19992;-89
2023/03/06 03:43:30;;;;;;;15.97;9.77;;;;;;;;;;2564719;23;19908;-91
2023/03/06 03:44:31;;;;;;;19.90;10.38;;;;;;;;;;2581584;23;19997;-90
2023/03/06 03:45:31;;;;;;;;;;;;;;;;;;2579679;23;19984;-91
2023/03/06 03:46:31;;;;;;;17.10;9.27;;;;;;;;;;2578338;23;19908;-91
2023/03/06 03:47:32;;;;;;;;;;;;;;;;;;2571426;23;20074;-90
2023/03/06 03:48:32;;;;;;;15.73;10.30;;;;;;;;;;2569719;23;20292;-90
2023/03/06 03:49:32;;;;;;;17.13;11.05;;;;;;;;;;2568751;23;19991;-91
2023/03/06 03:50:33;;;;;;;15.75;9.77;;;;;;;;;;2132112;23;10186727;-89
2023/03/06 03:51:33;;;;;;;16.00;10.57;;;;;;;;;;2555563;23;19997;-88
2023/03/06 03:52:34;;;;;;;;;;;;;;;;;;2572071;23;19993;-90
2023/03/06 03:53:34;;;;;;;15.00;9.67;;;;;;;;;;2567145;23;19923;-89
2023/03/06 03:54:34;;;;;;;;;;;;;;;;;;2572019;23;20007;-88
2023/03/06 03:55:35;;;;;;;16.83;10.63;;;;;;;;;;2572284;23;20308;-90
2023/03/06 03:56:36;;;;;;;;;;;;;;;;;;2567876;23;20008;-90
2023/03/06 03:57:38;;;;;;;20.30;11.20;;;;;;;;;;2571422;23;19908;-89
2023/03/06 03:58:38;;;;;;;19.83;11.23;;;;;;;;;;2567162;23;20239;-88
2023/03/06 03:59:38;;;;;;;;;;;;;;;;;;2555476;23;20074;-88
2023/03/06 04:00:39;;;;;;;18.13;11.07;;;;;;;;;;2554632;23;19914;-89
2023/03/06 04:01:39;;;;;;;22.00;11.85;;;;;;;;;;2572551;23;20426;-89
2023/03/06 04:02:39;;;;;;;;;;;;;;;;;;2571745;23;19992;-89
2023/03/06 04:03:40;;;;;;;21.27;10.77;;;;;;;;;;2567065;23;20121;-89
2023/03/06 04:04:40;;;;;;;23.33;12.25;;;;;;;;;;2555054;23;20081;-88
2023/03/06 04:05:40;;;;;;;;;;;;;;;;;;2567782;23;20406;-89
2023/03/06 04:06:41;;;;;;;20.73;12.00;;;;;;;;;;2579655;23;19923;-89
2023/03/06 04:07:42;;;;;;;;;;;;;;;;;;2580466;23;20022;-89
2023/03/06 04:08:42;;;;;;;22.90;12.35;;;;;;;;;;2580320;23;19903;-89
2023/03/06 04:09:42;;;;;;;;;;;;;;;;;;2580660;23;20003;-90
2023/03/06 04:10:43;;;;;;;20.90;11.63;;;;;;;;;;2567531;23;19907;-88
2023/03/06 04:11:43;;;;;;;16.88;11.35;;;;;;;;;;2556889;23;20015;-89
2023/03/06 04:12:43;;;;;;;;;;;;;;;;;;2579147;23;20086;-88
2023/03/06 04:13:44;;;;;;;16.42;10.63;;;;;;;;;;2582419;22;19914;-89
2023/03/06 04:14:44;;;;;;;18.35;10.73;;;;;;;;;;2572336;23;20007;-90
2023/03/06 04:15:45;;;;;;;;;;;;;;;;;;2573104;23;19992;-90
2023/03/06 04:16:45;;;;;;;17.75;10.98;;;;;;;;;;2568534;23;19908;-87
2023/03/06 04:17:45;;;;;;;;;;;;;;;;;;2572091;23;20489;-89
2023/03/06 04:18:46;;;;;;;18.38;10.65;;;;;;;;;;2572539;23;19919;-89
2023/03/06 04:19:46;;;;;;;;;;;;;;;;;;2567288;23;20019;-88
2023/03/06 04:20:49;;;;;;;20.95;11.73;;;;;;;;;;2571660;23;20340;-89
2023/03/06 04:21:49;;;;;;;19.95;10.90;;;;;;;;;;2572294;23;20004;-88
2023/03/06 04:22:49;;;;;;;;;;;;;;;;;;2567947;23;20008;-88
2023/03/06 04:23:50;;;;;;;22.35;11.73;;;;;;;;;;2580186;23;19958;-89
2023/03/06 04:24:50;;;;;;;;;;;;;;;;;;2580274;23;20166;-89
2023/03/06 04:25:50;;;;;;;22.95;11.75;;;;;;;;;;2554967;23;19908;-91
2023/03/06 04:26:51;;;;;;;;;;;;;;;;;;2555432;23;20007;-90
2023/03/06 04:27:52;;;;;;;19.45;10.90;;;;;;;;;;2571509;23;19907;-90
2023/03/06 04:28:52;;;;;;;20.80;11.23;;;;;;;;;;2567586;23;20001;-90
2023/03/06 04:29:55;;;;;;;;;;;;;;;;;;2572123;23;19999;-87
2023/03/06 04:30:55;;;;;;;21.70;12.13;;;;;;;;;;2139917;23;10000525;-87
2023/03/06 04:31:56;;;;;;;19.58;11.23;;;;;;;;;;2571480;23;20000;-90
2023/03/06 04:32:56;;;;;;;;;;;;;;;;;;2567686;23;20031;-90
2023/03/06 04:33:56;;;;;;;19.50;10.80;;;;;;;;;;2571357;23;19904;-89
2023/03/06 04:34:57;;;;;;;;;;;;;;;;;;2572541;23;19993;-89
2023/03/06 04:35:57;;;;;;;19.57;12.07;;;;;;;;;;2572014;23;19911;-91
2023/03/06 04:36:57;;;;;;;;;;;;;;;;;;2567526;23;20070;-91
2023/03/06 04:37:58;;;;;;;19.25;10.80;;;;;;;;;;2555096;23;20283;-89
2023/03/06 04:38:59;;;;;;;16.92;10.70;;;;;;;;;;2556363;23;20126;-90
2023/03/06 04:40:00;;;;;;;19.33;11.82;;;;;;;;;;2574114;23;20629;-89
2023/03/06 04:41:00;;;;;;;;;;;;;;;;;;2568091;23;20359;-90
2023/03/06 04:42:01;;;;;;;15.03;10.43;;;;;;;;;;2579325;23;20383;-89
2023/03/06 04:43:02;;;;;;;20.08;11.73;;;;;;;;;;2579451;23;20079;-90
2023/03/06 04:44:03;;;;;;;17.98;11.18;;;;;;;;;;2555119;23;20024;-89
2023/03/06 04:45:03;;;;;;;;;;;;;;;;;;2571800;23;20008;-88
2023/03/06 04:46:04;;;;;;;19.83;11.77;;;;;;;;;;2568465;23;19907;-88
2023/03/06 04:47:04;;;;;;;17.23;11.20;;;;;;;;;;2572071;23;20377;-90
2023/03/06 04:48:05;;;;;;;;;;;;;;;;;;2567948;23;20334;-89
2023/03/06 04:49:05;;;;;;;18.77;11.57;;;;;;;;;;2571130;23;19990;-88
2023/03/06 04:50:06;;;;;;;;;;;;;;;;;;2567641;23;20129;-89
2023/03/06 04:51:07;;;;;;;16.50;11.03;;;;;;;;;;2554838;23;19912;-88
2023/03/06 04:52:07;;;;;;;;;;;;;;;;;;2567753;23;19996;-88
2023/03/06 04:53:08;;;;;;;17.23;10.73;;;;;;;;;;2554428;23;19904;-89
2023/03/06 04:54:08;;;;;;;18.42;11.80;;;;;;;;;;2554304;23;20425;-89
2023/03/06 04:55:12;;;;;;;18.02;10.10;;;;;;;;;;2571188;23;20102;-88
2023/03/06 04:56:12;;;;;;;17.50;10.32;;;;;;;;;;2567119;23;20011;-89
2023/03/06 04:57:13;;;;;;;;;;;;;;;;;;2571832;23;20393;-88
2023/03/06 04:58:13;;;;;;;18.25;11.57;;;;;;;;;;2566603;23;19969;-89
2023/03/06 04:59:14;;;;;;;;;;;;;;;;;;2571575;23;20419;-89
2023/03/06 05:00:17;;;;;;;18.10;11.43;;;;;;;;;;2567336;23;20067;-88
2023/03/06 05:01:18;;;;;;;20.50;11.15;;;;;;;;;;2554762;23;20001;-89
2023/03/06 05:02:18;;;;;;;21.00;11.80;;;;;;;;;;2132814;23;10175422;-89
2023/03/06 05:03:18;;;;;;;19.05;12.23;;;;;;;;;;2572829;23;20421;-89
2023/03/06 05:04:19;;;;;;;;;;;;;;;;;;2568152;23;20020;-87
2023/03/06 05:05:19;;;;;;;20.07;11.93;;;;;;;;;;2579644;23;19904;-89
2023/03/06 05:06:20;;;;;;;21.25;12.07;;;;;;;;;;2582676;23;20000;-88
2023/03/06 05:07:20;;;;;;;;;;;;;;;;;;2564188;22;20001;-86
2023/03/06 05:08:22;;;;;;;22.83;11.67;;;;;;;;;;2559785;23;19911;-88
2023/03/06 05:09:22;;;;;;;18.85;11.38;;;;;;;;;;2555268;23;19993;-88
2023/03/06 05:10:23;;;;;;;;;;;;;;;;;;2555258;23;20072;-88
2023/03/06 05:11:23;;;;;;;18.65;11.57;;;;;;;;;;2571192;23;20241;-87
2023/03/06 05:12:24;;;;;;;;;;;;;;;;;;2568310;23;20061;-88
2023/03/06 05:13:25;;;;;;;22.07;10.47;;;;;;;;;;2571995;23;19904;-89
2023/03/06 05:14:28;;;;;;;19.85;11.55;;;;;;;;;;2567799;23;19996;-90
2023/03/06 05:15:29;;;;;;;21.75;11.65;;;;;;;;;;2567746;23;20075;-89
2023/03/06 05:16:29;;;;;;;;;;;;;;;;;;2555964;23;20004;-90
2023/03/06 05:17:29;;;;;;;19.95;11.45;;;;;;;;;;2572186;23;20347;-91
2023/03/06 05:18:30;;;;;;;;;;;;;;;;;;2568456;23;19996;-90
2023/03/06 05:19:31;;;;;;;24.23;12.20;;;;;;;;;;2580242;23;19912;-88
2023/03/06 05:20:31;;;;;;;19.80;12.15;;;;;;;;;;2580159;23;20429;-89
2023/03/06 05:21:32;;;;;;;20.33;12.45;;;;;;;;;;2555581;23;20062;-89
2023/03/06 05:22:32;;;;;;;;;;;;;;;;;;2556203;23;20027;-89
2023/03/06 05:23:35;;;;;;;21.77;11.82;;;;;;;;;;2572685;23;19943;-91
2023/03/06 05:24:36;;;;;;;20.88;11.13;;;;;;;;;;2567462;23;19996;-89
2023/03/06 05:25:39;;;;;;;;;;;;;;;;;;2556007;23;20100;-88
2023/03/06 05:26:40;;;;;;;19.65;11.20;;;;;;;;;;2568204;23;20265;-88
2023/03/06 05:27:40;;;;;;;;;;;;;;;;;;2556308;23;20003;-88
2023/03/06 05:28:41;;;;;;;20.43;10.70;;;;;;;;;;2555319;23;20358;-88
2023/03/06 05:29:41;;;;;;;19.40;11.35;;;;;;;;;;2555275;23;20067;-88
2023/03/06 05:30:41;;;;;;;;;;;;;;;;;;2572509;23;20334;-88
2023/03/06 05:31:42;;;;;;;22.08;11.68;;;;;;;;;;2567937;23;19974;-88
2023/03/06 05:32:42;;;;;;;;;;;;;;;;;;2572730;23;19989;-89
2023/03/06 05:33:43;;;;;;;16.47;9.57;;;;;;;;;;2593594;22;19907;-89
2023/03/06 05:34:43;;;;;;;;;;;;;;;;;;2581005;23;20141;-89
2023/03/06 05:35:46;;;;;;;18.13;9.73;;;;;;;;;;2555434;23;19904;-89
2023/03/06 05:36:46;;;;;;;17.90;11.02;;;;;;;;;;2555742;23;20000;-89
2023/03/06 05:37:47;;;;;;;;;;;;;;;;;;2573041;23;20335;-89
2023/03/06 05:38:48;;;;;;;17.75;9.93;;;;;;;;;;2573146;23;19908;-89
2023/03/06 05:39:49;;;;;;;;;;;;;;;;;;2569647;23;20460;-89
2023/03/06 05:40:49;;;;;;;16.15;10.05;;;;;;;;;;2568004;23;20325;-89
2023/03/06 05:41:50;;;;;;;18.90;10.45;;;;;;;;;;2572774;23;20023;-88
2023/03/06 05:42:50;;;;;;;16.98;10.65;;;;;;;;;;2129564;23;10001581;-89
2023/03/06 05:43:52;;;;;;;14.63;9.52;;;;;;;;;;2559692;23;20021;-89
2023/03/06 05:44:54;;;;;;;16.23;9.32;;;;;;;;;;2230797;23;10002548;-89
2023/03/06 05:46:04;;;;;;;15.70;9.30;;;;;;;;;;2567504;23;20202;-90
2023/03/06 05:47:04;;;;;;;15.95;9.15;;;;;;;;;;2556804;23;20381;-89
2023/03/06 05:48:05;;;;;;;;;;;;;;;;;;2556070;23;20061;-90
2023/03/06 05:49:05;;;;;;;14.83;9.23;;;;;;;;;;2567912;23;19904;-90
2023/03/06 05:50:07;;;;;;;;;;;;;;;;;;2572488;23;20458;-89
2023/03/06 05:51:09;;;;;;;15.75;9.00;;;;;;;;;;2572930;23;19930;-89
2023/03/06 05:52:11;;;;;;;16.33;9.82;;;;;;;;;;2567735;23;20007;-90
2023/03/06 05:53:11;;;;;;;17.95;10.13;;;;;;;;;;2555192;23;20009;-89
2023/03/06 05:54:12;;;;;;;;;;;;;;;;;;2568135;23;20382;-88
2023/03/06 05:55:12;;;;;;;18.13;10.17;;;;;;;;;;2572072;23;20257;-90
2023/03/06 05:56:13;;;;;;;13.50;8.70;;;;;;;;;;2567652;23;20090;-90
2023/03/06 05:57:13;;;;;;;18.00;9.52;;;;;;;;;;2571824;23;20461;-90
2023/03/06 05:58:13;;;;;;;23.13;9.73;;;;;;;;;;2572569;23;20433;-89
2023/03/06 05:59:27;;;;;;;;;;;;;;;;;;2573016;23;20004;-89
2023/03/06 06:00:27;;;;;;;16.85;9.20;;;;;;;;;;2570093;23;19903;-89
2023/03/06 06:01:33;;;;;;;;;;;;;;;;;;2580476;22;20004;-89
2023/03/06 06:02:39;;;;;;;15.82;9.57;;;;;;;;;;2572285;23;19956;-90
2023/03/06 06:03:42;;;;;;;13.95;9.40;;;;;;;;;;2557360;23;20043;-89
2023/03/06 06:04:55;;;;;;;15.23;9.57;;;;;;;;;;2555543;23;20004;-89
2023/03/06 06:05:55;;;;;;;15.48;9.27;;;;;;;;;;2571961;23;20003;-89
2023/03/06 06:06:56;;;;;;;;;;;;;;;;;;2573942;23;20337;-88
2023/03/06 06:07:57;;;;;;;13.63;8.20;;;;;;;;;;2572924;23;19947;-88
2023/03/06 06:08:57;;;;;;;;;;;;;;;;;;2573272;23;19993;-89
2023/03/06 06:10:05;;;;;;;17.35;9.68;;;;;;;;;;2573123;23;20153;-89
2023/03/06 06:11:10;;;;;;;17.83;10.00;;;;;;;;;;2567670;23;20000;-88
2023/03/06 06:12:12;;;;;;;13.63;8.57;;;;;;;;;;2556278;23;20001;-87
2023/03/06 06:13:12;;;;;;;16.02;9.77;;;;;;;;;;2129316;23;10002896;-88
2023/03/06 06:14:13;;;;;;;;;;;;;;;;;;2558135;23;20011;-88
2023/03/06 06:15:14;;;;;;;13.98;8.95;;;;;;;;;;2557169;23;20112;-88
2023/03/06 06:16:15;;;;;;;16.70;9.27;;;;;;;;;;2572790;23;20083;-87
2023/03/06 06:17:15;;;;;;;16.88;10.32;;;;;;;;;;2571648;23;20071;-88
2023/03/06 06:18:16;;;;;;;;;;;;;;;;;;2567843;22;19996;-88
2023/03/06 06:19:19;;;;;;;12.87;7.97;;;;;;;;;;2567092;22;19912;-89
2023/03/06 06:20:20;;;;;;;14.95;9.27;;;;;;;;;;2582456;23;19996;-89